createdAt,value
2017-07-21T00:01:34.602Z,99.90
2017-07-21T00:04:02.046Z,99.90
2017-07-21T00:06:29.574Z,99.90
2017-07-21T00:08:57.031Z,99.90
2017-07-21T00:11:24.462Z,99.90
2017-07-21T00:13:51.963Z,99.90
2017-07-21T00:16:21.073Z,99.90
2017-07-21T00:18:49.327Z,99.90
2017-07-21T00:21:17.554Z,99.90
2017-07-21T00:23:44.998Z,99.90
2017-07-21T00:26:13.227Z,99.90
2017-07-21T00:28:41.250Z,99.90
2017-07-21T00:31:08.686Z,99.90
2017-07-21T00:33:37.263Z,99.90
2017-07-21T00:36:04.698Z,99.90
2017-07-21T00:38:33.670Z,99.90
2017-07-21T00:41:01.723Z,99.90
2017-07-21T00:43:29.223Z,99.90
2017-07-21T00:45:57.814Z,99.90
2017-07-21T00:48:26.162Z,99.90
2017-07-21T00:50:53.637Z,99.90
2017-07-21T00:53:21.107Z,99.90
2017-07-21T00:55:48.546Z,99.90
2017-07-21T00:58:15.987Z,99.90
2017-07-21T01:00:43.430Z,99.90
2017-07-21T01:03:11.844Z,99.90
2017-07-21T01:05:40.035Z,99.90
2017-07-21T01:08:07.575Z,99.90
2017-07-21T01:10:35.048Z,99.90
2017-07-21T01:15:36.306Z,99.90
2017-07-21T01:18:05.909Z,99.90
2017-07-21T01:20:33.342Z,99.90
2017-07-21T01:23:00.779Z,99.90
2017-07-21T01:25:30.262Z,99.90
2017-07-21T01:27:58.490Z,99.90
2017-07-21T01:30:26.051Z,99.90
2017-07-21T01:32:53.488Z,99.90
2017-07-21T01:35:20.944Z,99.90
2017-07-21T01:37:48.375Z,99.90
2017-07-21T01:40:16.448Z,99.90
2017-07-21T01:42:44.033Z,99.90
2017-07-21T01:45:11.518Z,99.90
2017-07-21T01:47:38.964Z,99.90
2017-07-21T01:50:06.407Z,99.90
2017-07-21T01:52:33.854Z,99.90
2017-07-21T01:55:01.299Z,99.90
2017-07-21T01:57:28.725Z,99.90
2017-07-21T01:59:56.931Z,99.90
2017-07-21T02:02:24.378Z,99.90
2017-07-21T02:04:51.807Z,99.90
2017-07-21T02:07:19.246Z,99.90
2017-07-21T02:09:46.693Z,99.90
2017-07-21T02:15:05.290Z,99.90
2017-07-21T02:17:33.465Z,99.90
2017-07-21T02:20:01.641Z,99.90
2017-07-21T02:22:29.054Z,99.90
2017-07-21T02:24:56.465Z,99.90
2017-07-21T02:27:23.873Z,99.90
2017-07-21T02:29:51.284Z,99.90
2017-07-21T02:32:18.697Z,99.90
2017-07-21T02:34:46.116Z,99.90
2017-07-21T02:37:13.529Z,99.90
2017-07-21T02:39:41.697Z,99.90
2017-07-21T02:42:09.873Z,99.90
2017-07-21T02:44:37.279Z,99.90
2017-07-21T02:47:04.681Z,99.90
2017-07-21T02:49:33.402Z,99.90
2017-07-21T02:52:00.809Z,99.90
2017-07-21T02:54:28.213Z,99.90
2017-07-21T02:56:56.137Z,99.90
2017-07-21T02:59:23.556Z,99.90
2017-07-21T03:01:50.965Z,99.90
2017-07-21T03:04:19.177Z,99.90
2017-07-21T03:06:46.578Z,99.90
2017-07-21T03:09:14.308Z,99.90
2017-07-21T03:11:42.573Z,99.90
2017-07-21T03:14:11.779Z,99.90
2017-07-21T03:16:39.181Z,99.90
2017-07-21T03:19:07.357Z,99.90
2017-07-21T03:21:35.533Z,99.90
2017-07-21T03:24:04.569Z,99.90
2017-07-21T03:26:31.969Z,99.90
2017-07-21T03:28:59.394Z,99.90
2017-07-21T03:31:26.801Z,99.90
2017-07-21T03:33:54.220Z,99.90
2017-07-21T03:36:21.640Z,99.90
2017-07-21T03:38:49.097Z,99.90
2017-07-21T03:41:16.502Z,99.90
2017-07-21T03:43:43.904Z,99.90
2017-07-21T03:46:11.373Z,99.90
2017-07-21T03:48:38.828Z,99.90
2017-07-21T03:51:06.246Z,99.90
2017-07-21T03:53:34.338Z,99.90
2017-07-21T03:56:01.745Z,99.90
2017-07-21T03:58:29.162Z,99.90
2017-07-21T04:00:56.573Z,99.90
2017-07-21T04:03:23.981Z,99.90
2017-07-21T04:05:51.405Z,99.90
2017-07-21T04:08:18.810Z,99.90
2017-07-21T04:10:46.232Z,99.90
2017-07-21T04:13:13.633Z,99.90
2017-07-21T04:15:41.073Z,99.90
2017-07-21T04:18:08.469Z,99.90
2017-07-21T04:20:36.191Z,99.90
2017-07-21T04:23:03.595Z,99.90
2017-07-21T04:25:30.995Z,99.90
2017-07-21T04:27:59.075Z,99.90
2017-07-21T04:30:26.469Z,99.90
2017-07-21T04:32:53.885Z,99.90
2017-07-21T04:35:21.633Z,99.90
2017-07-21T04:37:49.090Z,99.90
2017-07-21T04:40:16.503Z,99.90
2017-07-21T04:42:45.473Z,99.90
2017-07-21T04:45:12.901Z,99.90
2017-07-21T04:47:40.312Z,99.90
2017-07-21T04:50:08.540Z,99.90
2017-07-21T04:52:35.941Z,99.90
2017-07-21T04:55:04.116Z,99.90
2017-07-21T04:57:32.285Z,99.90
2017-07-21T04:59:59.693Z,99.90
2017-07-21T05:02:27.105Z,99.90
2017-07-21T05:04:54.509Z,99.90
2017-07-21T05:07:21.926Z,99.90
2017-07-21T05:09:50.101Z,99.90
2017-07-21T05:12:18.277Z,99.90
2017-07-21T05:14:45.684Z,99.90
2017-07-21T05:17:13.101Z,99.90
2017-07-21T05:19:40.513Z,99.90
2017-07-21T05:22:08.786Z,99.90
2017-07-21T05:24:36.196Z,99.90
2017-07-21T05:27:03.681Z,99.90
2017-07-21T05:29:31.087Z,99.90
2017-07-21T05:31:59.273Z,99.90
2017-07-21T05:34:26.677Z,99.90
2017-07-21T05:36:54.094Z,99.90
2017-07-21T05:39:21.505Z,99.90
2017-07-21T05:41:48.913Z,99.90
2017-07-21T05:44:17.255Z,99.90
2017-07-21T05:46:44.657Z,99.90
2017-07-21T05:49:12.083Z,99.90
2017-07-21T05:51:39.517Z,99.90
2017-07-21T05:54:06.917Z,99.90
2017-07-21T05:56:34.329Z,99.90
2017-07-21T05:59:02.517Z,99.90
2017-07-21T06:01:29.925Z,99.90
2017-07-21T06:03:57.349Z,99.90
2017-07-21T06:06:24.753Z,99.90
2017-07-21T06:08:52.170Z,99.40
2017-07-21T06:11:19.585Z,99.50
2017-07-21T06:13:47.789Z,99.90
2017-07-21T06:16:15.193Z,99.90
2017-07-21T06:18:42.597Z,99.10
2017-07-21T06:21:10.014Z,99.60
2017-07-21T06:23:37.429Z,99.30
2017-07-21T06:26:04.838Z,99.00
2017-07-21T06:28:33.017Z,98.90
2017-07-21T06:31:01.198Z,98.60
2017-07-21T06:33:29.364Z,97.80
2017-07-21T06:35:57.540Z,97.20
2017-07-21T06:38:25.721Z,97.20
2017-07-21T06:40:53.133Z,97.10
2017-07-21T06:43:20.546Z,95.60
2017-07-21T06:45:47.957Z,95.70
2017-07-21T06:48:15.733Z,95.10
2017-07-21T06:50:43.134Z,94.70
2017-07-21T06:53:10.538Z,95.50
2017-07-21T06:55:37.957Z,94.50
2017-07-21T06:58:05.375Z,94.80
2017-07-21T07:00:32.783Z,94.60
2017-07-21T07:03:00.761Z,93.70
2017-07-21T07:05:28.174Z,93.30
2017-07-21T07:07:55.592Z,93.20
2017-07-21T07:10:22.997Z,91.90
2017-07-21T07:12:50.417Z,91.20
2017-07-21T07:15:18.589Z,90.00
2017-07-21T07:17:46.765Z,89.40
2017-07-21T07:20:16.321Z,90.20
2017-07-21T07:22:43.738Z,90.20
2017-07-21T07:25:11.147Z,91.60
2017-07-21T07:27:39.476Z,91.80
2017-07-21T07:30:07.406Z,92.30
2017-07-21T07:32:34.813Z,93.00
2017-07-21T07:35:02.217Z,93.70
2017-07-21T07:37:29.635Z,92.40
2017-07-21T07:39:58.025Z,93.60
2017-07-21T07:42:25.442Z,92.80
2017-07-21T07:44:52.850Z,92.50
2017-07-21T07:47:20.965Z,92.60
2017-07-21T07:49:48.385Z,92.80
2017-07-21T07:52:15.797Z,92.10
2017-07-21T07:54:43.724Z,91.50
2017-07-21T07:57:11.125Z,91.50
2017-07-21T07:59:40.077Z,86.40
2017-07-21T08:02:08.246Z,83.10
2017-07-21T08:04:36.432Z,84.30
2017-07-21T08:07:04.617Z,81.90
2017-07-21T08:09:32.794Z,77.80
2017-07-21T08:12:00.207Z,77.70
2017-07-21T08:14:27.649Z,76.20
2017-07-21T08:16:56.098Z,73.30
2017-07-21T08:19:23.501Z,71.30
2017-07-21T08:21:51.274Z,70.10
2017-07-21T08:24:18.685Z,66.60
2017-07-21T08:26:46.097Z,64.60
2017-07-21T08:29:14.279Z,60.00
2017-07-21T08:31:42.918Z,59.60
2017-07-21T08:34:10.333Z,59.50
2017-07-21T08:36:38.236Z,58.80
2017-07-21T08:39:06.321Z,57.80
2017-07-21T08:41:33.738Z,56.00
2017-07-21T08:44:01.142Z,57.00
2017-07-21T08:46:28.573Z,56.70
2017-07-21T08:48:55.985Z,56.50
2017-07-21T08:51:24.173Z,54.40
2017-07-21T08:53:52.097Z,54.40
2017-07-21T08:56:19.509Z,55.00
2017-07-21T08:58:46.926Z,55.30
2017-07-21T09:01:14.321Z,54.90
2017-07-21T09:03:41.737Z,55.00
2017-07-21T09:06:09.143Z,55.20
2017-07-21T09:08:36.558Z,54.60
2017-07-21T09:11:04.729Z,53.20
2017-07-21T09:13:32.924Z,52.70
2017-07-21T09:16:00.332Z,52.60
2017-07-21T09:18:28.282Z,53.30
2017-07-21T09:20:55.702Z,52.30
2017-07-21T09:23:23.133Z,51.60
2017-07-21T09:25:51.309Z,52.10
2017-07-21T09:28:19.481Z,53.20
2017-07-21T09:30:47.667Z,53.80
2017-07-21T09:33:16.373Z,51.30
2017-07-21T09:35:43.789Z,51.30
2017-07-21T09:38:11.198Z,51.30
2017-07-21T09:40:38.610Z,50.90
2017-07-21T09:43:06.785Z,50.80
2017-07-21T09:45:34.961Z,51.80
2017-07-21T09:48:03.665Z,52.20
2017-07-21T09:50:31.873Z,52.20
2017-07-21T09:52:59.257Z,52.20
2017-07-21T09:55:26.664Z,53.40
2017-07-21T09:57:54.072Z,53.60
2017-07-21T10:00:21.494Z,53.80
2017-07-21T10:02:48.892Z,52.70
2017-07-21T10:05:17.075Z,51.70
2017-07-21T10:07:45.249Z,50.00
2017-07-21T10:10:13.458Z,50.50
2017-07-21T10:12:40.862Z,49.90
2017-07-21T10:15:08.277Z,50.50
2017-07-21T10:17:35.695Z,49.20
2017-07-21T10:20:03.871Z,50.20
2017-07-21T10:22:32.881Z,50.00
2017-07-21T10:25:00.298Z,50.00
2017-07-21T10:27:28.291Z,52.40
2017-07-21T10:29:56.473Z,52.60
2017-07-21T10:32:23.880Z,52.70
2017-07-21T10:34:51.298Z,51.40
2017-07-21T10:37:18.713Z,50.70
2017-07-21T10:39:46.126Z,51.70
2017-07-21T10:42:14.465Z,53.00
2017-07-21T10:44:42.633Z,50.80
2017-07-21T10:47:10.825Z,51.60
2017-07-21T10:49:38.237Z,51.60
2017-07-21T10:52:05.663Z,50.80
2017-07-21T10:54:33.082Z,53.20
2017-07-21T10:57:01.271Z,51.30
2017-07-21T10:59:28.670Z,51.20
2017-07-21T11:01:56.085Z,51.20
2017-07-21T11:04:23.493Z,50.50
2017-07-21T11:06:50.925Z,50.40
2017-07-21T11:09:18.337Z,48.40
2017-07-21T11:11:46.524Z,47.60
2017-07-21T11:14:13.937Z,47.50
2017-07-21T11:16:41.568Z,49.60
2017-07-21T11:19:08.978Z,51.40
2017-07-21T11:21:36.401Z,51.00
2017-07-21T11:24:03.813Z,51.50
2017-07-21T11:26:31.233Z,49.40
2017-07-21T11:28:59.428Z,49.10
2017-07-21T11:31:27.610Z,48.80
2017-07-21T11:33:55.028Z,48.80
2017-07-21T11:36:23.227Z,47.90
2017-07-21T11:38:51.400Z,48.30
2017-07-21T11:41:19.581Z,50.20
2017-07-21T11:43:47.006Z,50.10
2017-07-21T11:46:14.421Z,49.10
2017-07-21T11:48:41.839Z,48.50
2017-07-21T11:51:10.014Z,47.60
2017-07-21T11:53:38.206Z,48.30
2017-07-21T11:56:05.621Z,48.80
2017-07-21T11:58:33.064Z,47.80
2017-07-21T12:01:00.460Z,47.20
2017-07-21T12:03:28.648Z,48.30
2017-07-21T12:05:56.053Z,48.30
2017-07-21T12:08:23.481Z,47.20
2017-07-21T12:10:51.817Z,46.10
2017-07-21T12:13:19.995Z,44.20
2017-07-21T12:15:48.183Z,44.80
2017-07-21T12:18:15.585Z,44.70
2017-07-21T12:20:43.006Z,44.70
2017-07-21T12:23:10.414Z,44.00
2017-07-21T12:25:38.350Z,44.30
2017-07-21T12:28:05.762Z,44.20
2017-07-21T12:30:33.949Z,44.70
2017-07-21T12:33:01.777Z,44.60
2017-07-21T12:35:30.071Z,44.40
2017-07-21T12:37:58.240Z,44.10
2017-07-21T12:40:26.438Z,44.20
2017-07-21T12:42:53.845Z,44.20
2017-07-21T12:45:21.253Z,44.00
2017-07-21T12:47:48.674Z,44.30
2017-07-21T12:50:16.987Z,46.00
2017-07-21T12:52:44.405Z,45.70
2017-07-21T12:55:11.827Z,47.80
2017-07-21T12:57:39.942Z,48.60
2017-07-21T13:00:07.355Z,49.90
2017-07-21T13:02:35.137Z,50.20
2017-07-21T13:05:02.550Z,50.50
2017-07-21T13:07:29.965Z,51.10
2017-07-21T13:09:57.383Z,52.30
2017-07-21T13:12:24.789Z,51.70
2017-07-21T13:14:53.327Z,49.20
2017-07-21T13:17:20.737Z,49.20
2017-07-21T13:19:48.913Z,49.10
2017-07-21T13:22:17.100Z,48.70
2017-07-21T13:24:44.508Z,48.70
2017-07-21T13:27:11.925Z,48.20
2017-07-21T13:29:39.325Z,47.90
2017-07-21T13:32:06.766Z,47.40
2017-07-21T13:34:34.174Z,47.20
2017-07-21T13:37:01.581Z,48.40
2017-07-21T13:39:29.001Z,47.70
2017-07-21T13:41:56.414Z,47.50
2017-07-21T13:44:23.836Z,47.50
2017-07-21T13:46:51.244Z,47.50
2017-07-21T13:49:18.673Z,47.40
2017-07-21T13:51:46.085Z,48.80
2017-07-21T13:54:13.489Z,49.50
2017-07-21T13:56:41.805Z,50.20
2017-07-21T13:59:09.221Z,49.00
2017-07-21T14:01:36.637Z,48.80
2017-07-21T14:04:04.065Z,49.10
2017-07-21T14:06:31.470Z,48.60
2017-07-21T14:08:59.692Z,49.30
2017-07-21T14:11:27.856Z,49.20
2017-07-21T14:13:55.277Z,49.10
2017-07-21T14:16:22.694Z,50.40
2017-07-21T14:18:50.901Z,51.40
2017-07-21T14:21:18.309Z,50.90
2017-07-21T14:23:46.489Z,52.40
2017-07-21T14:26:13.905Z,52.40
2017-07-21T14:28:41.309Z,52.50
2017-07-21T14:31:08.734Z,52.80
2017-07-21T14:33:36.145Z,52.00
2017-07-21T14:36:03.556Z,53.80
2017-07-21T14:38:31.721Z,54.30
2017-07-21T14:41:00.581Z,53.20
2017-07-21T14:43:28.000Z,53.10
2017-07-21T14:45:55.410Z,53.30
2017-07-21T14:48:22.830Z,54.30
2017-07-21T14:50:50.245Z,53.00
2017-07-21T14:53:18.424Z,54.50
2017-07-21T14:55:46.605Z,54.40
2017-07-21T14:58:15.227Z,54.30
2017-07-21T15:00:42.621Z,54.00
2017-07-21T15:03:10.032Z,54.10
2017-07-21T15:05:37.437Z,52.50
2017-07-21T15:08:06.425Z,51.10
2017-07-21T15:10:33.831Z,51.00
2017-07-21T15:13:01.241Z,52.10
2017-07-21T15:15:29.423Z,52.40
2017-07-21T15:17:57.604Z,52.60
2017-07-21T15:20:25.769Z,52.60
2017-07-21T15:22:53.951Z,53.40
2017-07-21T15:25:22.317Z,53.30
2017-07-21T15:27:50.369Z,53.80
2017-07-21T15:30:17.770Z,53.40
2017-07-21T15:32:45.181Z,54.20
2017-07-21T15:35:12.600Z,55.70
2017-07-21T15:37:40.013Z,58.00
2017-07-21T15:40:08.193Z,59.90
2017-07-21T15:42:36.376Z,59.40
2017-07-21T15:45:04.573Z,59.40
2017-07-21T15:47:31.993Z,58.70
2017-07-21T15:49:59.401Z,58.70
2017-07-21T15:52:26.820Z,58.20
2017-07-21T15:54:54.230Z,58.70
2017-07-21T15:57:21.655Z,62.10
2017-07-21T15:59:49.065Z,63.40
2017-07-21T16:02:17.489Z,62.50
2017-07-21T16:04:46.065Z,62.20
2017-07-21T16:07:13.468Z,62.70
2017-07-21T16:09:41.426Z,64.20
2017-07-21T16:12:09.169Z,64.80
2017-07-21T16:14:36.584Z,62.80
2017-07-21T16:17:04.766Z,65.00
2017-07-21T16:19:32.188Z,64.80
2017-07-21T16:22:00.128Z,64.50
2017-07-21T16:24:27.546Z,65.50
2017-07-21T16:26:55.708Z,66.90
2017-07-21T16:29:24.713Z,65.90
2017-07-21T16:31:52.117Z,65.80
2017-07-21T16:34:19.538Z,64.90
2017-07-21T16:36:46.945Z,62.50
2017-07-21T16:39:14.637Z,61.50
2017-07-21T16:41:42.044Z,61.40
2017-07-21T16:44:09.464Z,61.40
2017-07-21T16:46:36.869Z,62.00
2017-07-21T16:49:04.305Z,63.50
2017-07-21T16:51:31.705Z,62.50
2017-07-21T16:53:59.113Z,62.90
2017-07-21T16:56:26.533Z,65.10
2017-07-21T16:58:54.717Z,65.00
2017-07-21T17:01:22.122Z,64.90
2017-07-21T17:03:49.533Z,65.50
2017-07-21T17:06:17.732Z,67.30
2017-07-21T17:08:45.144Z,69.30
2017-07-21T17:11:13.333Z,71.20
2017-07-21T17:13:40.729Z,71.00
2017-07-21T17:16:08.145Z,70.30
2017-07-21T17:18:36.713Z,73.70
2017-07-21T17:21:04.898Z,75.10
2017-07-21T17:23:32.309Z,75.10
2017-07-21T17:25:59.725Z,74.50
2017-07-21T17:28:27.125Z,75.80
2017-07-21T17:30:54.542Z,74.70
2017-07-21T17:33:21.949Z,76.80
2017-07-21T17:35:50.136Z,76.60
2017-07-21T17:38:18.661Z,76.60
2017-07-21T17:40:46.057Z,76.90
2017-07-21T17:43:14.290Z,76.30
2017-07-21T17:45:41.705Z,75.50
2017-07-21T17:48:09.978Z,79.00
2017-07-21T17:50:38.162Z,78.80
2017-07-21T17:53:05.577Z,78.70
2017-07-21T17:55:32.988Z,79.20
2017-07-21T17:58:00.412Z,80.60
2017-07-21T18:00:27.814Z,81.00
2017-07-21T18:02:56.137Z,80.50
2017-07-21T18:05:24.367Z,82.60
2017-07-21T18:07:51.774Z,83.60
2017-07-21T18:10:19.959Z,84.50
2017-07-21T18:12:48.779Z,87.10
2017-07-21T18:15:16.181Z,87.10
2017-07-21T18:17:44.777Z,87.80
2017-07-21T18:20:12.944Z,90.10
2017-07-21T18:22:41.128Z,90.90
2017-07-21T18:25:09.300Z,91.40
2017-07-21T18:27:37.489Z,92.30
2017-07-21T18:30:04.902Z,92.30
2017-07-21T18:32:32.306Z,93.10
2017-07-21T18:35:00.850Z,93.70
2017-07-21T18:37:29.267Z,94.20
2017-07-21T18:39:56.682Z,94.10
2017-07-21T18:42:24.086Z,93.90
2017-07-21T18:44:51.504Z,93.80
2017-07-21T18:47:18.911Z,93.80
2017-07-21T18:49:46.321Z,94.10
2017-07-21T18:52:14.492Z,95.10
2017-07-21T18:54:42.686Z,95.30
2017-07-21T18:57:10.861Z,95.40
2017-07-21T18:59:38.280Z,95.40
2017-07-21T19:02:05.685Z,96.00
2017-07-21T19:04:34.705Z,96.20
2017-07-21T19:07:02.101Z,96.80
2017-07-21T19:09:29.517Z,97.40
2017-07-21T19:11:56.929Z,98.50
2017-07-21T19:14:25.956Z,99.90
2017-07-21T19:16:53.369Z,99.90
2017-07-21T19:19:21.544Z,99.90
2017-07-21T19:21:49.725Z,99.90
2017-07-21T19:24:17.899Z,99.90
2017-07-21T19:26:46.080Z,99.90
2017-07-21T19:29:13.494Z,99.90
2017-07-21T19:31:40.915Z,99.90
2017-07-21T19:34:08.309Z,99.90
2017-07-21T19:36:35.737Z,99.90
2017-07-21T19:39:03.133Z,99.90
2017-07-21T19:41:30.551Z,99.90
2017-07-21T19:43:57.963Z,99.90
2017-07-21T19:46:25.370Z,99.90
2017-07-21T19:48:52.799Z,99.90
2017-07-21T19:51:20.205Z,99.90
2017-07-21T19:53:47.613Z,99.90
2017-07-21T19:56:15.288Z,99.90
2017-07-21T19:58:42.695Z,99.90
2017-07-21T20:01:10.127Z,99.90
2017-07-21T20:03:37.537Z,99.90
2017-07-21T20:06:04.941Z,99.90
2017-07-21T20:08:32.357Z,99.90
2017-07-21T20:10:59.761Z,99.90
2017-07-21T20:13:27.186Z,99.90
2017-07-21T20:15:54.596Z,99.90
2017-07-21T20:18:22.780Z,99.90
2017-07-21T20:20:50.185Z,99.90
2017-07-21T20:23:17.910Z,99.90
2017-07-21T20:25:45.313Z,99.90
2017-07-21T20:28:13.544Z,99.90
2017-07-21T20:30:40.957Z,99.90
2017-07-21T20:33:08.372Z,99.90
2017-07-21T20:35:35.781Z,99.90
2017-07-21T20:38:03.958Z,99.90
2017-07-21T20:40:32.104Z,99.90
2017-07-21T20:42:59.518Z,99.90
2017-07-21T20:45:26.929Z,99.90
2017-07-21T20:47:54.353Z,99.90
2017-07-21T20:50:21.821Z,99.90
2017-07-21T20:52:49.256Z,99.90
2017-07-21T20:55:16.669Z,99.90
2017-07-21T20:57:44.977Z,99.90
2017-07-21T21:00:13.134Z,99.90
2017-07-21T21:02:40.541Z,99.90
2017-07-21T21:05:07.958Z,99.90
2017-07-21T21:07:35.368Z,99.90
2017-07-21T21:10:02.773Z,99.90
2017-07-21T21:12:30.193Z,99.90
2017-07-21T21:14:58.007Z,99.90
2017-07-21T21:17:25.409Z,99.90
2017-07-21T21:19:52.825Z,99.90
2017-07-21T21:22:20.233Z,99.90
2017-07-21T21:24:48.413Z,99.90
2017-07-21T21:27:16.589Z,99.90
2017-07-21T21:29:44.006Z,99.90
2017-07-21T21:32:11.413Z,99.90
2017-07-21T21:34:38.830Z,99.90
2017-07-21T21:37:06.234Z,99.90
2017-07-21T21:39:33.650Z,99.90
2017-07-21T21:42:01.066Z,99.90
2017-07-21T21:44:28.489Z,99.90
2017-07-21T21:46:55.888Z,99.90
2017-07-21T21:49:24.152Z,99.90
2017-07-21T21:51:51.562Z,99.90
2017-07-21T21:54:19.744Z,99.90
2017-07-21T21:56:48.684Z,99.90
2017-07-21T21:59:16.097Z,99.90
2017-07-21T22:01:43.515Z,99.90
2017-07-21T22:04:10.913Z,99.90
2017-07-21T22:06:38.326Z,99.90
2017-07-21T22:09:05.748Z,99.90
2017-07-21T22:11:33.161Z,99.90
2017-07-21T22:14:01.332Z,99.90
2017-07-21T22:16:29.509Z,99.90
2017-07-21T22:18:57.677Z,99.90
2017-07-21T22:21:25.858Z,99.90
2017-07-21T22:23:54.026Z,99.90
2017-07-21T22:26:22.209Z,99.90
2017-07-21T22:28:50.384Z,99.90
2017-07-21T22:31:17.797Z,99.90
2017-07-21T22:33:45.212Z,99.90
2017-07-21T22:36:12.846Z,99.90
2017-07-21T22:38:41.925Z,99.90
2017-07-21T22:41:09.333Z,99.90
2017-07-21T22:43:36.805Z,99.90
2017-07-21T22:46:04.197Z,99.90
2017-07-21T22:48:31.610Z,99.90
2017-07-21T22:50:59.017Z,99.90
2017-07-21T22:53:27.193Z,99.90
2017-07-21T22:55:55.369Z,99.90
2017-07-21T22:58:23.550Z,99.90
2017-07-21T23:00:51.719Z,99.90
2017-07-21T23:03:19.904Z,99.90
2017-07-21T23:05:48.077Z,99.90
2017-07-21T23:08:16.261Z,99.90
2017-07-21T23:10:44.345Z,99.90
2017-07-21T23:13:11.761Z,99.90
2017-07-21T23:15:39.170Z,99.90
2017-07-21T23:18:06.578Z,99.90
2017-07-21T23:20:35.562Z,99.90
2017-07-21T23:23:02.978Z,99.90
2017-07-21T23:25:30.387Z,99.90
2017-07-21T23:27:58.606Z,99.90
2017-07-21T23:30:33.565Z,99.90
2017-07-21T23:33:00.990Z,99.90
2017-07-21T23:35:28.403Z,99.90
2017-07-21T23:37:56.591Z,99.90
2017-07-21T23:40:24.816Z,99.90
2017-07-21T23:42:52.227Z,99.90
2017-07-21T23:45:19.637Z,99.90
2017-07-21T23:47:47.045Z,99.90
2017-07-21T23:50:14.460Z,99.90
2017-07-21T23:52:41.860Z,99.90
2017-07-21T23:55:09.270Z,99.90
2017-07-21T23:57:36.682Z,99.90
